TVP7464 EPWA-LGRP
Flight info
| Callsign | TVP7464 |
|---|---|
| Flight time | 2h 42m |
| Altitude | 37000 |
| Route | XIMBA DCT OMAVA DCT ROBTU DCT KENIN DCT AGNEP DCT NIKTI DCT MES UN139 LURUS UL995 CODIC |
| Aircraft | B738/M-SDE3FGHIJ1RWXYZ/LB1 |
Departure
| Time | 2026-05-07 20:41 |
|---|---|
| Airport | Warsaw Chopin Airport (EPWA) |
Arrival
| Time | 2026-05-07 23:23 |
|---|---|
| Airport | Rhodes International Airport "Diagoras" (LGRP) |
| Time | Latitude | Longitude | Altitude | Speed | Heading |
|---|---|---|---|---|---|
| 2026-05-07 19:45 | 52.15291 | 20.98409 | 338 ft | 0 kts | 61° |
| 2026-05-07 20:32 | 52.15287 | 20.98396 | 332 ft | 2 kts | 62° |
| 2026-05-07 20:33 | 52.15279 | 20.98373 | 332 ft | 2 kts | 60° |
| 2026-05-07 20:33 | 52.15271 | 20.98350 | 336 ft | 2 kts | 60° |
| 2026-05-07 20:33 | 52.15263 | 20.98327 | 332 ft | 2 kts | 58° |
| 2026-05-07 20:33 | 52.15254 | 20.98304 | 333 ft | 2 kts | 54° |
| 2026-05-07 20:34 | 52.15244 | 20.98284 | 332 ft | 2 kts | 32° |
| 2026-05-07 20:34 | 52.15233 | 20.98280 | 332 ft | 0 kts | 333° |
| 2026-05-07 20:34 | 52.15232 | 20.98281 | 332 ft | 0 kts | 334° |
| 2026-05-07 20:36 | 52.15255 | 20.98262 | 336 ft | 7 kts | 332° |
| 2026-05-07 20:37 | 52.15324 | 20.98201 | 334 ft | 15 kts | 331° |
| 2026-05-07 20:37 | 52.15417 | 20.98120 | 337 ft | 15 kts | 332° |
| 2026-05-07 20:37 | 52.15508 | 20.98041 | 337 ft | 14 kts | 332° |
| 2026-05-07 20:37 | 52.15598 | 20.98000 | 338 ft | 14 kts | 21° |
| 2026-05-07 20:38 | 52.15683 | 20.98065 | 337 ft | 13 kts | 24° |
| 2026-05-07 20:38 | 52.15766 | 20.98125 | 338 ft | 13 kts | 24° |
| 2026-05-07 20:38 | 52.15863 | 20.98198 | 336 ft | 17 kts | 24° |
| 2026-05-07 20:38 | 52.15972 | 20.98276 | 336 ft | 17 kts | 25° |
| 2026-05-07 20:39 | 52.16072 | 20.98351 | 333 ft | 13 kts | 25° |
| 2026-05-07 20:39 | 52.16110 | 20.98363 | 332 ft | 3 kts | 324° |
| 2026-05-07 20:39 | 52.16117 | 20.98344 | 334 ft | 0 kts | 295° |
| 2026-05-07 20:40 | 52.16118 | 20.98341 | 334 ft | 2 kts | 294° |
| 2026-05-07 20:40 | 52.16165 | 20.98170 | 333 ft | 48 kts | 295° |
| 2026-05-07 20:40 | 52.16418 | 20.97271 | 333 ft | 124 kts | 295° |
| 2026-05-07 20:40 | 52.16853 | 20.95702 | 522 ft | 167 kts | 295° |
| 2026-05-07 20:41 | 52.17331 | 20.93968 | 1363 ft | 174 kts | 297° |
| 2026-05-07 20:41 | 52.17871 | 20.92054 | 1913 ft | 198 kts | 296° |
| 2026-05-07 20:41 | 52.18308 | 20.89820 | 2313 ft | 224 kts | 271° |
| 2026-05-07 20:41 | 52.17981 | 20.87227 | 2672 ft | 248 kts | 256° |
| 2026-05-07 20:42 | 52.17559 | 20.84413 | 3362 ft | 258 kts | 257° |
| 2026-05-07 20:42 | 52.17156 | 20.81571 | 4413 ft | 256 kts | 257° |
| 2026-05-07 20:42 | 52.16759 | 20.78726 | 5327 ft | 260 kts | 257° |
| 2026-05-07 20:42 | 52.16358 | 20.75837 | 5795 ft | 261 kts | 257° |
| 2026-05-07 20:43 | 52.15949 | 20.72943 | 6192 ft | 264 kts | 254° |
| 2026-05-07 20:43 | 52.15061 | 20.70345 | 7031 ft | 266 kts | 230° |
| 2026-05-07 20:43 | 52.13690 | 20.68297 | 7910 ft | 269 kts | 220° |
| 2026-05-07 20:43 | 52.12200 | 20.66423 | 8749 ft | 272 kts | 218° |
| 2026-05-07 20:44 | 52.10655 | 20.64603 | 9594 ft | 276 kts | 211° |
| 2026-05-07 20:44 | 52.08791 | 20.63833 | 10340 ft | 286 kts | 180° |
| 2026-05-07 20:44 | 52.06789 | 20.64687 | 10591 ft | 315 kts | 154° |
| 2026-05-07 20:44 | 52.04933 | 20.66833 | 10791 ft | 341 kts | 139° |
| 2026-05-07 20:45 | 52.03276 | 20.69730 | 11234 ft | 356 kts | 132° |
| 2026-05-07 20:45 | 52.01706 | 20.72872 | 11931 ft | 361 kts | 130° |
| 2026-05-07 20:45 | 52.00145 | 20.76085 | 12727 ft | 364 kts | 130° |
| 2026-05-07 20:45 | 51.98564 | 20.79315 | 13515 ft | 367 kts | 131° |
| 2026-05-07 20:46 | 51.96949 | 20.82558 | 14247 ft | 371 kts | 132° |
| 2026-05-07 20:46 | 51.95307 | 20.85807 | 14996 ft | 374 kts | 133° |
| 2026-05-07 20:46 | 51.93639 | 20.89069 | 15769 ft | 377 kts | 133° |
| 2026-05-07 20:46 | 51.91954 | 20.92342 | 16526 ft | 380 kts | 134° |
| 2026-05-07 20:47 | 51.90250 | 20.95635 | 17303 ft | 382 kts | 133° |
| 2026-05-07 20:47 | 51.88546 | 20.98922 | 18165 ft | 381 kts | 133° |
| 2026-05-07 20:47 | 51.86834 | 21.02218 | 18835 ft | 384 kts | 133° |
| 2026-05-07 20:47 | 51.85104 | 21.05543 | 19437 ft | 388 kts | 134° |
| 2026-05-07 20:48 | 51.83357 | 21.08894 | 20040 ft | 391 kts | 134° |
| 2026-05-07 20:48 | 51.81595 | 21.12272 | 20667 ft | 394 kts | 134° |
| 2026-05-07 20:48 | 51.79826 | 21.15659 | 21319 ft | 395 kts | 134° |
| 2026-05-07 20:48 | 51.78047 | 21.19061 | 21909 ft | 398 kts | 134° |
| 2026-05-07 20:49 | 51.76255 | 21.22484 | 22458 ft | 401 kts | 135° |
| 2026-05-07 20:49 | 51.74447 | 21.25931 | 22972 ft | 404 kts | 135° |
| 2026-05-07 20:49 | 51.72624 | 21.29404 | 23494 ft | 407 kts | 135° |
| 2026-05-07 20:49 | 51.70790 | 21.32895 | 23893 ft | 410 kts | 135° |
| 2026-05-07 20:50 | 51.68932 | 21.36424 | 24284 ft | 414 kts | 135° |
| 2026-05-07 20:50 | 51.67061 | 21.39956 | 24735 ft | 414 kts | 136° |
| 2026-05-07 20:50 | 51.65000 | 21.43157 | 25177 ft | 410 kts | 145° |
| 2026-05-07 20:50 | 51.62664 | 21.45754 | 25603 ft | 407 kts | 153° |
| 2026-05-07 20:51 | 51.60214 | 21.48060 | 26026 ft | 409 kts | 154° |
| 2026-05-07 20:51 | 51.57748 | 21.50368 | 26414 ft | 411 kts | 154° |
| 2026-05-07 20:51 | 51.55274 | 21.52700 | 26808 ft | 413 kts | 153° |
| 2026-05-07 20:51 | 51.52792 | 21.55058 | 27191 ft | 415 kts | 153° |
| 2026-05-07 20:52 | 51.50303 | 21.57434 | 27575 ft | 417 kts | 153° |
| 2026-05-07 20:52 | 51.47816 | 21.59855 | 27928 ft | 421 kts | 150° |
| 2026-05-07 20:52 | 51.45625 | 21.63051 | 28182 ft | 434 kts | 134° |
| 2026-05-07 20:52 | 51.43827 | 21.66994 | 28456 ft | 441 kts | 129° |
| 2026-05-07 20:53 | 51.42137 | 21.71125 | 28768 ft | 444 kts | 127° |
| 2026-05-07 20:53 | 51.40477 | 21.75312 | 29115 ft | 446 kts | 127° |
| 2026-05-07 20:53 | 51.38823 | 21.79516 | 29494 ft | 446 kts | 127° |
| 2026-05-07 20:53 | 51.37177 | 21.83720 | 29979 ft | 445 kts | 127° |
| 2026-05-07 20:54 | 51.35547 | 21.87907 | 30462 ft | 442 kts | 127° |
| 2026-05-07 20:54 | 51.33856 | 21.91981 | 30824 ft | 436 kts | 135° |
| 2026-05-07 20:54 | 51.31642 | 21.95183 | 31114 ft | 426 kts | 152° |
| 2026-05-07 20:54 | 51.29010 | 21.97213 | 31536 ft | 417 kts | 163° |
| 2026-05-07 20:55 | 51.26250 | 21.98493 | 31939 ft | 410 kts | 173° |
| 2026-05-07 20:55 | 51.23442 | 21.99199 | 32343 ft | 408 kts | 175° |
| 2026-05-07 20:55 | 51.20635 | 21.99762 | 32782 ft | 405 kts | 176° |
| 2026-05-07 20:55 | 51.17842 | 22.00086 | 33252 ft | 399 kts | 184° |
| 2026-05-07 20:56 | 51.15086 | 21.99871 | 33767 ft | 394 kts | 186° |
| 2026-05-07 20:56 | 51.12356 | 21.99595 | 34182 ft | 392 kts | 186° |
| 2026-05-07 20:56 | 51.09628 | 21.99312 | 34380 ft | 395 kts | 186° |
| 2026-05-07 20:56 | 51.06872 | 21.99036 | 34536 ft | 398 kts | 186° |
| 2026-05-07 20:57 | 51.04139 | 21.98776 | 34778 ft | 399 kts | 186° |
| 2026-05-07 20:57 | 51.01368 | 21.98526 | 35057 ft | 399 kts | 186° |
| 2026-05-07 20:57 | 50.98588 | 21.98283 | 35304 ft | 401 kts | 186° |
| 2026-05-07 20:57 | 50.95799 | 21.98045 | 35537 ft | 403 kts | 186° |
| 2026-05-07 20:58 | 50.92990 | 21.97808 | 35770 ft | 404 kts | 186° |
| 2026-05-07 20:58 | 50.90181 | 21.97573 | 36002 ft | 405 kts | 186° |
| 2026-05-07 20:58 | 50.87363 | 21.97338 | 36275 ft | 407 kts | 186° |
| 2026-05-07 20:58 | 50.84531 | 21.97102 | 36533 ft | 408 kts | 186° |
| 2026-05-07 20:59 | 50.81698 | 21.96867 | 36772 ft | 408 kts | 186° |
| 2026-05-07 20:59 | 50.78863 | 21.96632 | 36990 ft | 410 kts | 186° |
| 2026-05-07 20:59 | 50.75990 | 21.96392 | 36953 ft | 415 kts | 186° |
| 2026-05-07 21:00 | 50.71185 | 21.95993 | 36956 ft | 415 kts | 186° |
| 2026-05-07 21:00 | 50.65426 | 21.95521 | 36957 ft | 408 kts | 186° |
| 2026-05-07 21:01 | 50.59775 | 21.95056 | 36963 ft | 405 kts | 186° |
| 2026-05-07 21:01 | 50.54155 | 21.94593 | 36962 ft | 404 kts | 186° |
| 2026-05-07 21:02 | 50.48580 | 21.94134 | 36967 ft | 404 kts | 186° |
| 2026-05-07 21:02 | 50.42960 | 21.93673 | 36972 ft | 405 kts | 186° |
| 2026-05-07 21:03 | 50.37320 | 21.93211 | 36980 ft | 407 kts | 186° |
| 2026-05-07 21:03 | 50.31656 | 21.92749 | 36984 ft | 409 kts | 186° |
| 2026-05-07 21:04 | 50.25963 | 21.92285 | 37001 ft | 411 kts | 186° |
| 2026-05-07 21:04 | 50.20232 | 21.91820 | 36992 ft | 413 kts | 186° |
| 2026-05-07 21:05 | 50.14488 | 21.91356 | 36997 ft | 413 kts | 186° |
| 2026-05-07 21:05 | 50.08746 | 21.90893 | 36990 ft | 413 kts | 186° |
| 2026-05-07 21:06 | 50.03005 | 21.90431 | 36993 ft | 412 kts | 186° |
| 2026-05-07 21:06 | 49.97280 | 21.89971 | 36987 ft | 412 kts | 186° |
| 2026-05-07 21:07 | 49.91552 | 21.89511 | 36979 ft | 414 kts | 186° |
| 2026-05-07 21:07 | 49.85799 | 21.89050 | 36980 ft | 414 kts | 186° |
| 2026-05-07 21:08 | 49.80049 | 21.88592 | 36978 ft | 413 kts | 186° |
| 2026-05-07 21:08 | 49.74320 | 21.88136 | 36973 ft | 412 kts | 186° |
| 2026-05-07 21:09 | 49.68604 | 21.87683 | 36972 ft | 411 kts | 186° |
| 2026-05-07 21:09 | 49.62908 | 21.87231 | 36972 ft | 410 kts | 186° |
| 2026-05-07 21:10 | 49.57224 | 21.86782 | 36982 ft | 409 kts | 186° |
| 2026-05-07 21:10 | 49.51548 | 21.86334 | 36980 ft | 408 kts | 186° |
| 2026-05-07 21:11 | 49.45886 | 21.85888 | 36972 ft | 407 kts | 186° |
| 2026-05-07 21:11 | 49.37387 | 21.85221 | 36978 ft | 408 kts | 186° |
| 2026-05-07 21:12 | 49.31712 | 21.84777 | 36990 ft | 409 kts | 186° |
| 2026-05-07 21:12 | 49.26015 | 21.84332 | 36977 ft | 411 kts | 186° |
| 2026-05-07 21:13 | 49.20305 | 21.83887 | 36988 ft | 411 kts | 186° |
| 2026-05-07 21:13 | 49.14579 | 21.83442 | 36990 ft | 413 kts | 186° |
| 2026-05-07 21:14 | 49.08837 | 21.82997 | 36995 ft | 414 kts | 186° |
| 2026-05-07 21:14 | 49.03084 | 21.82553 | 36997 ft | 414 kts | 186° |
| 2026-05-07 21:15 | 48.97322 | 21.82108 | 36996 ft | 414 kts | 186° |
| 2026-05-07 21:15 | 48.91569 | 21.81666 | 36991 ft | 414 kts | 186° |
| 2026-05-07 21:16 | 48.85795 | 21.82160 | 37026 ft | 419 kts | 176° |
| 2026-05-07 21:16 | 48.79996 | 21.83457 | 36987 ft | 422 kts | 175° |
| 2026-05-07 21:17 | 48.74204 | 21.84722 | 36984 ft | 419 kts | 176° |
| 2026-05-07 21:17 | 48.68439 | 21.85950 | 36992 ft | 417 kts | 176° |
| 2026-05-07 21:18 | 48.62699 | 21.87161 | 37000 ft | 416 kts | 176° |
| 2026-05-07 21:18 | 48.56974 | 21.88365 | 37004 ft | 415 kts | 176° |
| 2026-05-07 21:19 | 48.51264 | 21.89563 | 37001 ft | 414 kts | 176° |
| 2026-05-07 21:19 | 48.45552 | 21.90760 | 37018 ft | 414 kts | 176° |
| 2026-05-07 21:20 | 48.39878 | 21.91947 | 37001 ft | 415 kts | 176° |
| 2026-05-07 21:20 | 48.34162 | 21.93330 | 37011 ft | 419 kts | 172° |
| 2026-05-07 21:21 | 48.28493 | 21.95442 | 36986 ft | 421 kts | 170° |
| 2026-05-07 21:21 | 48.22813 | 21.97652 | 37012 ft | 422 kts | 170° |
| 2026-05-07 21:22 | 48.17117 | 21.99823 | 37027 ft | 423 kts | 170° |
| 2026-05-07 21:22 | 48.11393 | 22.01965 | 37030 ft | 425 kts | 171° |
| 2026-05-07 21:23 | 48.05650 | 22.04097 | 37032 ft | 426 kts | 171° |
| 2026-05-07 21:23 | 47.99899 | 22.06225 | 37025 ft | 427 kts | 171° |
| 2026-05-07 21:24 | 47.94134 | 22.08354 | 37034 ft | 427 kts | 171° |
| 2026-05-07 21:24 | 47.88361 | 22.10481 | 37011 ft | 427 kts | 171° |
| 2026-05-07 21:25 | 47.82586 | 22.12605 | 37028 ft | 427 kts | 171° |
| 2026-05-07 21:25 | 47.76813 | 22.14722 | 37015 ft | 427 kts | 171° |
| 2026-05-07 21:26 | 47.71037 | 22.16836 | 37035 ft | 427 kts | 171° |
| 2026-05-07 21:26 | 47.65220 | 22.18959 | 37025 ft | 428 kts | 171° |
| 2026-05-07 21:27 | 47.59477 | 22.21051 | 37032 ft | 428 kts | 171° |
| 2026-05-07 21:27 | 47.53688 | 22.23155 | 37019 ft | 429 kts | 171° |
| 2026-05-07 21:28 | 47.47887 | 22.25259 | 37026 ft | 429 kts | 171° |
| 2026-05-07 21:28 | 47.42097 | 22.27355 | 37035 ft | 429 kts | 171° |
| 2026-05-07 21:29 | 47.36298 | 22.29448 | 37033 ft | 429 kts | 171° |
| 2026-05-07 21:29 | 47.30501 | 22.31536 | 37031 ft | 429 kts | 171° |
| 2026-05-07 21:30 | 47.24700 | 22.33620 | 37043 ft | 430 kts | 171° |
| 2026-05-07 21:30 | 47.18886 | 22.35704 | 37038 ft | 430 kts | 171° |
| 2026-05-07 21:31 | 47.13074 | 22.37784 | 37028 ft | 430 kts | 171° |
| 2026-05-07 21:31 | 47.07267 | 22.39857 | 37046 ft | 429 kts | 171° |
| 2026-05-07 21:32 | 47.01457 | 22.41926 | 37041 ft | 429 kts | 171° |
| 2026-05-07 21:32 | 46.97236 | 22.43426 | 37055 ft | 430 kts | 171° |
| 2026-05-07 21:33 | 46.91421 | 22.45489 | 37052 ft | 430 kts | 171° |
| 2026-05-07 21:33 | 46.85601 | 22.47549 | 37047 ft | 430 kts | 171° |
| 2026-05-07 21:34 | 46.79781 | 22.49605 | 37034 ft | 430 kts | 171° |
| 2026-05-07 21:34 | 46.73973 | 22.51652 | 37039 ft | 429 kts | 171° |
| 2026-05-07 21:35 | 46.68170 | 22.53692 | 37061 ft | 429 kts | 171° |
| 2026-05-07 21:35 | 46.62363 | 22.55729 | 37062 ft | 429 kts | 171° |
| 2026-05-07 21:36 | 46.56546 | 22.57765 | 37058 ft | 430 kts | 171° |
| 2026-05-07 21:36 | 46.50724 | 22.59799 | 37056 ft | 430 kts | 171° |
| 2026-05-07 21:37 | 46.44902 | 22.61828 | 37059 ft | 430 kts | 171° |
| 2026-05-07 21:37 | 46.39080 | 22.63853 | 37058 ft | 430 kts | 171° |
| 2026-05-07 21:38 | 46.33255 | 22.65874 | 37056 ft | 430 kts | 171° |
| 2026-05-07 21:38 | 46.27429 | 22.67891 | 37066 ft | 431 kts | 171° |
| 2026-05-07 21:39 | 46.21593 | 22.69908 | 37063 ft | 432 kts | 171° |
| 2026-05-07 21:39 | 46.15744 | 22.71923 | 37056 ft | 432 kts | 171° |
| 2026-05-07 21:40 | 46.09896 | 22.73935 | 37054 ft | 432 kts | 171° |
| 2026-05-07 21:40 | 46.05036 | 22.75604 | 37064 ft | 432 kts | 171° |
| 2026-05-07 21:41 | 45.99192 | 22.77606 | 37062 ft | 432 kts | 171° |
| 2026-05-07 21:41 | 45.93334 | 22.79608 | 37065 ft | 433 kts | 171° |
| 2026-05-07 21:42 | 45.87464 | 22.81611 | 37055 ft | 434 kts | 171° |
| 2026-05-07 21:42 | 45.81586 | 22.83612 | 37063 ft | 434 kts | 171° |
| 2026-05-07 21:43 | 45.75700 | 22.85611 | 37068 ft | 435 kts | 171° |
| 2026-05-07 21:43 | 45.69810 | 22.87607 | 37072 ft | 435 kts | 171° |
| 2026-05-07 21:44 | 45.63916 | 22.89601 | 37057 ft | 436 kts | 171° |
| 2026-05-07 21:44 | 45.58014 | 22.91593 | 37078 ft | 436 kts | 171° |
| 2026-05-07 21:45 | 45.52105 | 22.93584 | 37082 ft | 436 kts | 171° |
| 2026-05-07 21:45 | 45.46196 | 22.95570 | 37090 ft | 437 kts | 171° |
| 2026-05-07 21:46 | 45.40275 | 22.97505 | 37088 ft | 437 kts | 172° |
| 2026-05-07 21:46 | 45.34342 | 22.99374 | 37083 ft | 437 kts | 172° |
| 2026-05-07 21:47 | 45.28408 | 23.01239 | 37088 ft | 437 kts | 172° |
| 2026-05-07 21:47 | 45.22465 | 23.03111 | 37087 ft | 438 kts | 172° |
| 2026-05-07 21:48 | 45.16509 | 23.04988 | 37082 ft | 439 kts | 172° |
| 2026-05-07 21:48 | 45.10553 | 23.06862 | 37088 ft | 439 kts | 172° |
| 2026-05-07 21:49 | 45.04584 | 23.08737 | 37081 ft | 440 kts | 172° |
| 2026-05-07 21:49 | 44.98607 | 23.10610 | 37064 ft | 441 kts | 172° |
| 2026-05-07 21:50 | 44.92620 | 23.12482 | 37082 ft | 441 kts | 172° |
| 2026-05-07 21:50 | 44.86628 | 23.14352 | 37075 ft | 441 kts | 172° |
| 2026-05-07 21:51 | 44.80631 | 23.16220 | 37080 ft | 441 kts | 172° |
| 2026-05-07 21:51 | 44.74630 | 23.18084 | 37059 ft | 442 kts | 172° |
| 2026-05-07 21:52 | 44.68629 | 23.19945 | 37064 ft | 442 kts | 172° |
| 2026-05-07 21:52 | 44.62613 | 23.21805 | 37070 ft | 443 kts | 172° |
| 2026-05-07 21:53 | 44.56593 | 23.23664 | 37057 ft | 443 kts | 172° |
| 2026-05-07 21:53 | 44.50564 | 23.25521 | 37049 ft | 444 kts | 172° |
| 2026-05-07 21:54 | 44.44524 | 23.27378 | 37065 ft | 445 kts | 172° |
| 2026-05-07 21:54 | 44.38473 | 23.29234 | 37063 ft | 446 kts | 172° |
| 2026-05-07 21:55 | 44.32405 | 23.31091 | 37058 ft | 447 kts | 172° |
| 2026-05-07 21:55 | 44.26330 | 23.32947 | 37061 ft | 447 kts | 172° |
| 2026-05-07 21:56 | 44.20243 | 23.34802 | 37060 ft | 448 kts | 173° |
| 2026-05-07 21:56 | 44.14148 | 23.36656 | 37051 ft | 448 kts | 173° |
| 2026-05-07 21:57 | 44.08061 | 23.38504 | 37046 ft | 448 kts | 172° |
| 2026-05-07 21:57 | 44.01975 | 23.40348 | 37056 ft | 447 kts | 173° |
| 2026-05-07 21:58 | 43.95889 | 23.42187 | 37054 ft | 448 kts | 173° |
| 2026-05-07 21:58 | 43.89797 | 23.44024 | 37039 ft | 448 kts | 173° |
| 2026-05-07 21:59 | 43.83700 | 23.45859 | 37053 ft | 449 kts | 173° |
| 2026-05-07 21:59 | 43.77595 | 23.47692 | 37061 ft | 449 kts | 173° |
| 2026-05-07 22:00 | 43.71479 | 23.49525 | 37067 ft | 450 kts | 173° |
| 2026-05-07 22:00 | 43.65346 | 23.51360 | 37045 ft | 451 kts | 173° |
| 2026-05-07 22:01 | 43.59206 | 23.53192 | 37063 ft | 452 kts | 173° |
| 2026-05-07 22:01 | 43.53055 | 23.55024 | 37058 ft | 453 kts | 173° |
| 2026-05-07 22:02 | 43.46888 | 23.56857 | 37048 ft | 454 kts | 173° |
| 2026-05-07 22:02 | 43.40711 | 23.58689 | 37071 ft | 455 kts | 173° |
| 2026-05-07 22:03 | 43.34519 | 23.60522 | 37068 ft | 456 kts | 173° |
| 2026-05-07 22:03 | 43.28306 | 23.62357 | 37077 ft | 457 kts | 173° |
| 2026-05-07 22:04 | 43.22087 | 23.64191 | 37075 ft | 457 kts | 173° |
| 2026-05-07 22:04 | 43.15857 | 23.66023 | 37077 ft | 459 kts | 174° |
| 2026-05-07 22:05 | 43.09612 | 23.67856 | 37087 ft | 459 kts | 174° |
| 2026-05-07 22:05 | 43.03363 | 23.69687 | 37074 ft | 460 kts | 174° |
| 2026-05-07 22:06 | 42.97100 | 23.71518 | 37084 ft | 461 kts | 174° |
| 2026-05-07 22:06 | 42.90833 | 23.73346 | 37105 ft | 461 kts | 174° |
| 2026-05-07 22:07 | 42.84558 | 23.75173 | 37075 ft | 461 kts | 174° |
| 2026-05-07 22:07 | 42.78323 | 23.76985 | 37101 ft | 462 kts | 175° |
| 2026-05-07 22:08 | 42.72029 | 23.78808 | 37115 ft | 463 kts | 175° |
| 2026-05-07 22:08 | 42.65723 | 23.80631 | 37115 ft | 464 kts | 175° |
| 2026-05-07 22:09 | 42.59404 | 23.82455 | 37112 ft | 465 kts | 176° |
| 2026-05-07 22:09 | 42.53068 | 23.84281 | 37113 ft | 466 kts | 175° |
| 2026-05-07 22:10 | 42.46714 | 23.86108 | 37110 ft | 467 kts | 175° |
| 2026-05-07 22:10 | 42.40354 | 23.87933 | 37099 ft | 468 kts | 176° |
| 2026-05-07 22:11 | 42.33971 | 23.89759 | 37117 ft | 470 kts | 176° |
| 2026-05-07 22:11 | 42.27553 | 23.91592 | 37126 ft | 472 kts | 176° |
| 2026-05-07 22:12 | 42.21110 | 23.93430 | 37121 ft | 474 kts | 176° |
| 2026-05-07 22:12 | 42.14651 | 23.95272 | 37122 ft | 475 kts | 176° |
| 2026-05-07 22:13 | 42.08192 | 23.97105 | 37119 ft | 474 kts | 176° |
| 2026-05-07 22:13 | 42.01741 | 23.98930 | 37113 ft | 473 kts | 177° |
| 2026-05-07 22:14 | 41.95305 | 24.00752 | 37124 ft | 473 kts | 177° |
| 2026-05-07 22:14 | 41.88864 | 24.02569 | 37130 ft | 473 kts | 177° |
| 2026-05-07 22:15 | 41.82427 | 24.04382 | 37116 ft | 473 kts | 178° |
| 2026-05-07 22:15 | 41.75983 | 24.06192 | 37140 ft | 473 kts | 179° |
| 2026-05-07 22:16 | 41.69520 | 24.08003 | 37148 ft | 476 kts | 178° |
| 2026-05-07 22:16 | 41.63021 | 24.09823 | 37149 ft | 478 kts | 178° |
| 2026-05-07 22:17 | 41.56479 | 24.11651 | 37141 ft | 483 kts | 179° |
| 2026-05-07 22:17 | 41.53200 | 24.12837 | 37131 ft | 497 kts | 169° |
| 2026-05-07 22:17 | 41.49970 | 24.14581 | 37161 ft | 503 kts | 166° |
| 2026-05-07 22:18 | 41.40305 | 24.20237 | 37134 ft | 507 kts | 166° |
| 2026-05-07 22:19 | 41.33835 | 24.23989 | 37124 ft | 507 kts | 166° |
| 2026-05-07 22:19 | 41.27354 | 24.27677 | 37118 ft | 506 kts | 166° |
| 2026-05-07 22:20 | 41.20879 | 24.31332 | 37100 ft | 504 kts | 166° |
| 2026-05-07 22:20 | 41.14434 | 24.34962 | 37121 ft | 503 kts | 166° |
| 2026-05-07 22:21 | 41.07996 | 24.38584 | 37120 ft | 503 kts | 166° |
| 2026-05-07 22:21 | 41.01556 | 24.42198 | 37114 ft | 502 kts | 166° |
| 2026-05-07 22:22 | 40.96201 | 24.45197 | 37093 ft | 503 kts | 166° |
| 2026-05-07 22:22 | 40.89761 | 24.48800 | 37103 ft | 502 kts | 166° |
| 2026-05-07 22:23 | 40.83319 | 24.52395 | 37106 ft | 503 kts | 166° |
| 2026-05-07 22:23 | 40.76862 | 24.55990 | 37117 ft | 504 kts | 166° |
| 2026-05-07 22:24 | 40.70393 | 24.59584 | 37111 ft | 505 kts | 166° |
| 2026-05-07 22:24 | 40.63908 | 24.63181 | 37112 ft | 507 kts | 166° |
| 2026-05-07 22:25 | 40.57398 | 24.66783 | 37102 ft | 508 kts | 166° |
| 2026-05-07 22:25 | 40.50883 | 24.70382 | 37113 ft | 508 kts | 166° |
| 2026-05-07 22:26 | 40.44372 | 24.73972 | 37108 ft | 507 kts | 166° |
| 2026-05-07 22:26 | 40.37868 | 24.77550 | 37114 ft | 506 kts | 166° |
| 2026-05-07 22:27 | 40.31369 | 24.81116 | 37112 ft | 506 kts | 166° |
| 2026-05-07 22:27 | 40.24877 | 24.84670 | 37085 ft | 506 kts | 166° |
| 2026-05-07 22:28 | 40.18397 | 24.88212 | 37116 ft | 505 kts | 166° |
| 2026-05-07 22:28 | 40.11924 | 24.91743 | 37117 ft | 504 kts | 166° |
| 2026-05-07 22:29 | 40.05456 | 24.95263 | 37113 ft | 503 kts | 166° |
| 2026-05-07 22:29 | 39.98995 | 24.98771 | 37109 ft | 503 kts | 166° |
| 2026-05-07 22:30 | 39.92540 | 25.02270 | 37105 ft | 503 kts | 165° |
| 2026-05-07 22:30 | 39.86080 | 25.05763 | 37114 ft | 503 kts | 165° |
| 2026-05-07 22:31 | 39.79605 | 25.09256 | 37084 ft | 504 kts | 165° |
| 2026-05-07 22:31 | 39.73122 | 25.12749 | 37109 ft | 504 kts | 165° |
| 2026-05-07 22:32 | 39.66676 | 25.16214 | 37117 ft | 505 kts | 165° |
| 2026-05-07 22:32 | 39.60177 | 25.19700 | 37118 ft | 506 kts | 165° |
| 2026-05-07 22:33 | 39.53671 | 25.23184 | 37115 ft | 506 kts | 165° |
| 2026-05-07 22:33 | 39.47160 | 25.26663 | 37122 ft | 506 kts | 165° |
| 2026-05-07 22:34 | 39.40639 | 25.30140 | 37126 ft | 507 kts | 165° |
| 2026-05-07 22:34 | 39.34120 | 25.33609 | 37125 ft | 507 kts | 165° |
| 2026-05-07 22:35 | 39.27595 | 25.37074 | 37125 ft | 507 kts | 165° |
| 2026-05-07 22:35 | 39.21068 | 25.40533 | 37127 ft | 507 kts | 165° |
| 2026-05-07 22:36 | 39.14537 | 25.43988 | 37125 ft | 508 kts | 165° |
| 2026-05-07 22:36 | 39.07997 | 25.47440 | 37111 ft | 508 kts | 165° |
| 2026-05-07 22:37 | 39.01459 | 25.50885 | 37124 ft | 507 kts | 164° |
| 2026-05-07 22:37 | 38.94924 | 25.54320 | 37129 ft | 507 kts | 165° |
| 2026-05-07 22:38 | 38.88390 | 25.57749 | 37128 ft | 507 kts | 165° |
| 2026-05-07 22:38 | 38.81859 | 25.61169 | 37123 ft | 507 kts | 164° |
| 2026-05-07 22:39 | 38.75330 | 25.64581 | 37133 ft | 507 kts | 164° |
| 2026-05-07 22:39 | 38.68797 | 25.67988 | 37131 ft | 507 kts | 164° |
| 2026-05-07 22:40 | 38.62264 | 25.71389 | 37136 ft | 507 kts | 164° |
| 2026-05-07 22:40 | 38.55726 | 25.74786 | 37132 ft | 507 kts | 164° |
| 2026-05-07 22:41 | 38.49182 | 25.78179 | 37139 ft | 508 kts | 164° |
| 2026-05-07 22:41 | 38.42635 | 25.81567 | 37136 ft | 508 kts | 164° |
| 2026-05-07 22:42 | 38.36083 | 25.84951 | 37119 ft | 508 kts | 164° |
| 2026-05-07 22:42 | 38.29528 | 25.88332 | 37134 ft | 508 kts | 164° |
| 2026-05-07 22:43 | 38.22967 | 25.91710 | 37132 ft | 509 kts | 164° |
| 2026-05-07 22:43 | 38.16404 | 25.95081 | 37148 ft | 509 kts | 164° |
| 2026-05-07 22:44 | 38.09836 | 25.98448 | 37130 ft | 509 kts | 163° |
| 2026-05-07 22:44 | 38.03262 | 26.01815 | 37148 ft | 510 kts | 163° |
| 2026-05-07 22:45 | 37.96677 | 26.05184 | 37143 ft | 511 kts | 163° |
| 2026-05-07 22:45 | 37.90086 | 26.08553 | 37146 ft | 511 kts | 163° |
| 2026-05-07 22:46 | 37.83486 | 26.11924 | 37145 ft | 511 kts | 163° |
| 2026-05-07 22:46 | 37.76886 | 26.15292 | 37153 ft | 512 kts | 163° |
| 2026-05-07 22:47 | 37.70281 | 26.18659 | 37154 ft | 512 kts | 163° |
| 2026-05-07 22:47 | 37.63569 | 26.21512 | 37156 ft | 507 kts | 169° |
| 2026-05-07 22:48 | 37.56784 | 26.23971 | 36819 ft | 507 kts | 170° |
| 2026-05-07 22:48 | 37.53406 | 26.25207 | 36572 ft | 506 kts | 170° |
| 2026-05-07 22:48 | 37.50076 | 26.26450 | 36335 ft | 506 kts | 169° |
| 2026-05-07 22:48 | 37.46690 | 26.27733 | 36107 ft | 509 kts | 169° |
| 2026-05-07 22:49 | 37.43290 | 26.29032 | 35851 ft | 512 kts | 169° |
| 2026-05-07 22:49 | 37.39882 | 26.30338 | 35598 ft | 513 kts | 169° |
| 2026-05-07 22:49 | 37.36466 | 26.31646 | 35358 ft | 514 kts | 169° |
| 2026-05-07 22:49 | 37.33045 | 26.32954 | 35117 ft | 514 kts | 169° |
| 2026-05-07 22:50 | 37.29625 | 26.34259 | 34541 ft | 514 kts | 169° |
| 2026-05-07 22:50 | 37.26235 | 26.35552 | 34067 ft | 504 kts | 169° |
| 2026-05-07 22:50 | 37.22906 | 26.36821 | 33558 ft | 494 kts | 169° |
| 2026-05-07 22:50 | 37.19657 | 26.38059 | 33235 ft | 482 kts | 169° |
| 2026-05-07 22:51 | 37.16494 | 26.39372 | 32696 ft | 477 kts | 166° |
| 2026-05-07 22:51 | 37.13381 | 26.40771 | 32068 ft | 474 kts | 166° |
| 2026-05-07 22:51 | 37.10296 | 26.42189 | 31465 ft | 470 kts | 165° |
| 2026-05-07 22:51 | 37.07240 | 26.43584 | 30928 ft | 465 kts | 166° |
| 2026-05-07 22:52 | 37.04214 | 26.44946 | 30419 ft | 459 kts | 166° |
| 2026-05-07 22:52 | 37.01220 | 26.46275 | 29855 ft | 454 kts | 166° |
| 2026-05-07 22:52 | 36.98265 | 26.47578 | 29312 ft | 447 kts | 166° |
| 2026-05-07 22:52 | 36.95398 | 26.48845 | 29305 ft | 427 kts | 166° |
| 2026-05-07 22:53 | 36.92621 | 26.50079 | 29249 ft | 425 kts | 164° |
| 2026-05-07 22:53 | 36.89982 | 26.51895 | 29245 ft | 444 kts | 143° |
| 2026-05-07 22:53 | 36.87870 | 26.54758 | 29266 ft | 454 kts | 122° |
| 2026-05-07 22:53 | 36.86470 | 26.58304 | 29312 ft | 458 kts | 109° |
| 2026-05-07 22:54 | 36.85303 | 26.62033 | 29324 ft | 463 kts | 109° |
| 2026-05-07 22:54 | 36.82854 | 26.69418 | 29133 ft | 451 kts | 111° |
| 2026-05-07 22:54 | 36.81623 | 26.72980 | 28636 ft | 444 kts | 111° |
| 2026-05-07 22:55 | 36.80401 | 26.76509 | 27954 ft | 442 kts | 112° |
| 2026-05-07 22:55 | 36.79187 | 26.80017 | 27321 ft | 439 kts | 112° |
| 2026-05-07 22:55 | 36.77987 | 26.83489 | 26800 ft | 433 kts | 112° |
| 2026-05-07 22:55 | 36.76805 | 26.86908 | 26319 ft | 426 kts | 112° |
| 2026-05-07 22:56 | 36.75639 | 26.90277 | 25807 ft | 421 kts | 112° |
| 2026-05-07 22:56 | 36.74485 | 26.93613 | 25276 ft | 417 kts | 112° |
| 2026-05-07 22:56 | 36.73343 | 26.96910 | 24777 ft | 411 kts | 112° |
| 2026-05-07 22:56 | 36.72216 | 27.00160 | 24265 ft | 406 kts | 113° |
| 2026-05-07 22:57 | 36.71103 | 27.03366 | 23738 ft | 401 kts | 113° |
| 2026-05-07 22:57 | 36.70004 | 27.06531 | 23142 ft | 396 kts | 113° |
| 2026-05-07 22:57 | 36.68918 | 27.09653 | 22552 ft | 390 kts | 113° |
| 2026-05-07 22:57 | 36.67836 | 27.12756 | 22044 ft | 390 kts | 113° |
| 2026-05-07 22:58 | 36.66762 | 27.15833 | 21718 ft | 385 kts | 113° |
| 2026-05-07 22:58 | 36.65701 | 27.18864 | 21392 ft | 380 kts | 112° |
| 2026-05-07 22:58 | 36.64649 | 27.21866 | 21019 ft | 377 kts | 112° |
| 2026-05-07 22:58 | 36.63602 | 27.24851 | 20646 ft | 375 kts | 112° |
| 2026-05-07 22:59 | 36.62563 | 27.27812 | 20289 ft | 372 kts | 112° |
| 2026-05-07 22:59 | 36.61532 | 27.30749 | 19936 ft | 369 kts | 112° |
| 2026-05-07 22:59 | 36.60509 | 27.33661 | 19591 ft | 366 kts | 112° |
| 2026-05-07 22:59 | 36.59492 | 27.36551 | 19246 ft | 363 kts | 112° |
| 2026-05-07 23:00 | 36.58497 | 27.39378 | 18913 ft | 360 kts | 112° |
| 2026-05-07 23:00 | 36.57496 | 27.42220 | 18575 ft | 358 kts | 112° |
| 2026-05-07 23:00 | 36.56487 | 27.45081 | 18211 ft | 355 kts | 112° |
| 2026-05-07 23:00 | 36.55512 | 27.47845 | 17818 ft | 352 kts | 112° |
| 2026-05-07 23:01 | 36.54528 | 27.50630 | 17422 ft | 351 kts | 112° |
| 2026-05-07 23:01 | 36.53548 | 27.53401 | 17041 ft | 349 kts | 112° |
| 2026-05-07 23:01 | 36.52574 | 27.56153 | 16677 ft | 347 kts | 112° |
| 2026-05-07 23:01 | 36.51606 | 27.58886 | 16313 ft | 344 kts | 112° |
| 2026-05-07 23:02 | 36.50643 | 27.61604 | 15940 ft | 342 kts | 112° |
| 2026-05-07 23:02 | 36.49685 | 27.64305 | 15589 ft | 340 kts | 112° |
| 2026-05-07 23:02 | 36.48733 | 27.66987 | 15237 ft | 339 kts | 112° |
| 2026-05-07 23:02 | 36.47784 | 27.69655 | 14889 ft | 337 kts | 112° |
| 2026-05-07 23:03 | 36.46841 | 27.72308 | 14543 ft | 335 kts | 111° |
| 2026-05-07 23:03 | 36.46148 | 27.75046 | 14187 ft | 331 kts | 99° |
| 2026-05-07 23:03 | 36.45786 | 27.77851 | 13858 ft | 328 kts | 95° |
| 2026-05-07 23:03 | 36.45483 | 27.80644 | 13491 ft | 326 kts | 95° |
| 2026-05-07 23:04 | 36.45156 | 27.83419 | 13127 ft | 324 kts | 96° |
| 2026-05-07 23:04 | 36.44802 | 27.86171 | 12768 ft | 322 kts | 97° |
| 2026-05-07 23:04 | 36.44437 | 27.88906 | 12423 ft | 320 kts | 97° |
| 2026-05-07 23:04 | 36.44073 | 27.91612 | 12139 ft | 314 kts | 97° |
| 2026-05-07 23:05 | 36.43716 | 27.94260 | 11710 ft | 310 kts | 97° |
| 2026-05-07 23:05 | 36.43410 | 27.96897 | 11186 ft | 307 kts | 89° |
| 2026-05-07 23:05 | 36.43695 | 27.99489 | 10701 ft | 301 kts | 73° |
| 2026-05-07 23:05 | 36.44254 | 28.01977 | 10268 ft | 298 kts | 71° |
| 2026-05-07 23:06 | 36.44847 | 28.04439 | 9861 ft | 296 kts | 70° |
| 2026-05-07 23:06 | 36.45240 | 28.06051 | 9561 ft | 294 kts | 70° |
| 2026-05-07 23:06 | 36.45836 | 28.08465 | 9104 ft | 291 kts | 70° |
| 2026-05-07 23:06 | 36.46432 | 28.10850 | 8669 ft | 288 kts | 70° |
| 2026-05-07 23:07 | 36.47233 | 28.14004 | 8077 ft | 284 kts | 70° |
| 2026-05-07 23:07 | 36.47631 | 28.15546 | 7805 ft | 282 kts | 70° |
| 2026-05-07 23:07 | 36.48236 | 28.17853 | 7379 ft | 280 kts | 70° |
| 2026-05-07 23:07 | 36.48844 | 28.20136 | 6956 ft | 277 kts | 70° |
| 2026-05-07 23:08 | 36.49457 | 28.22397 | 6548 ft | 275 kts | 70° |
| 2026-05-07 23:08 | 36.50071 | 28.24629 | 6139 ft | 272 kts | 70° |
| 2026-05-07 23:08 | 36.50681 | 28.26836 | 5825 ft | 265 kts | 70° |
| 2026-05-07 23:08 | 36.51265 | 28.28940 | 5710 ft | 251 kts | 70° |
| 2026-05-07 23:09 | 36.51617 | 28.31028 | 5384 ft | 248 kts | 92° |
| 2026-05-07 23:09 | 36.51101 | 28.33083 | 4923 ft | 253 kts | 121° |
| 2026-05-07 23:09 | 36.49936 | 28.34680 | 4651 ft | 248 kts | 143° |
| 2026-05-07 23:09 | 36.48458 | 28.35656 | 4565 ft | 235 kts | 164° |
| 2026-05-07 23:10 | 36.46865 | 28.35648 | 4196 ft | 235 kts | 201° |
| 2026-05-07 23:10 | 36.45598 | 28.34438 | 4157 ft | 227 kts | 239° |
| 2026-05-07 23:10 | 36.45110 | 28.32621 | 4055 ft | 225 kts | 265° |
| 2026-05-07 23:10 | 36.44978 | 28.30690 | 3893 ft | 223 kts | 268° |
| 2026-05-07 23:11 | 36.44917 | 28.28743 | 3513 ft | 229 kts | 270° |
| 2026-05-07 23:11 | 36.44906 | 28.26765 | 3200 ft | 229 kts | 271° |
| 2026-05-07 23:11 | 36.44891 | 28.24769 | 2688 ft | 233 kts | 269° |
| 2026-05-07 23:11 | 36.44670 | 28.22824 | 2482 ft | 221 kts | 257° |
| 2026-05-07 23:12 | 36.44160 | 28.21069 | 2211 ft | 215 kts | 250° |
| 2026-05-07 23:12 | 36.43643 | 28.19351 | 1770 ft | 208 kts | 252° |
| 2026-05-07 23:12 | 36.43153 | 28.17700 | 1359 ft | 199 kts | 251° |
| 2026-05-07 23:12 | 36.42709 | 28.16161 | 1140 ft | 179 kts | 253° |
| 2026-05-07 23:13 | 36.42331 | 28.14754 | 897 ft | 164 kts | 252° |
| 2026-05-07 23:13 | 36.41967 | 28.13471 | 656 ft | 149 kts | 251° |
| 2026-05-07 23:13 | 36.41641 | 28.12379 | 783 ft | 127 kts | 251° |
| 2026-05-07 23:13 | 36.41274 | 28.11099 | 903 ft | 184 kts | 251° |
| 2026-05-07 23:14 | 36.40865 | 28.09710 | 1398 ft | 167 kts | 251° |
| 2026-05-07 23:14 | 36.40451 | 28.08288 | 1741 ft | 179 kts | 252° |
| 2026-05-07 23:14 | 36.40025 | 28.06854 | 2278 ft | 176 kts | 253° |
| 2026-05-07 23:14 | 36.39898 | 28.05358 | 2540 ft | 181 kts | 284° |
| 2026-05-07 23:15 | 36.40571 | 28.04082 | 2813 ft | 179 kts | 323° |
| 2026-05-07 23:15 | 36.41725 | 28.03548 | 3075 ft | 179 kts | 356° |
| 2026-05-07 23:15 | 36.42920 | 28.03812 | 3469 ft | 173 kts | 15° |
| 2026-05-07 23:15 | 36.44160 | 28.04260 | 3697 ft | 200 kts | 15° |
| 2026-05-07 23:16 | 36.45592 | 28.04765 | 3832 ft | 224 kts | 18° |
| 2026-05-07 23:16 | 36.46991 | 28.05654 | 4278 ft | 229 kts | 36° |
| 2026-05-07 23:16 | 36.48027 | 28.07153 | 4781 ft | 232 kts | 62° |
| 2026-05-07 23:16 | 36.48578 | 28.09084 | 5097 ft | 242 kts | 71° |
| 2026-05-07 23:17 | 36.49107 | 28.11015 | 5060 ft | 232 kts | 70° |
| 2026-05-07 23:17 | 36.49610 | 28.12853 | 5147 ft | 219 kts | 70° |
| 2026-05-07 23:17 | 36.50100 | 28.14698 | 4936 ft | 234 kts | 71° |
| 2026-05-07 23:17 | 36.50618 | 28.16678 | 4598 ft | 236 kts | 71° |
| 2026-05-07 23:18 | 36.51109 | 28.18582 | 4299 ft | 225 kts | 71° |
| 2026-05-07 23:18 | 36.51587 | 28.20428 | 3925 ft | 224 kts | 71° |
| 2026-05-07 23:18 | 36.51763 | 28.22299 | 3691 ft | 216 kts | 97° |
| 2026-05-07 23:18 | 36.51109 | 28.24005 | 3104 ft | 231 kts | 132° |
| 2026-05-07 23:19 | 36.49839 | 28.25103 | 3088 ft | 213 kts | 160° |
| 2026-05-07 23:19 | 36.48430 | 28.25311 | 3115 ft | 205 kts | 189° |
| 2026-05-07 23:19 | 36.47076 | 28.24787 | 2911 ft | 203 kts | 204° |
| 2026-05-07 23:19 | 36.45809 | 28.24005 | 2614 ft | 204 kts | 216° |
| 2026-05-07 23:20 | 36.44793 | 28.22835 | 2299 ft | 193 kts | 237° |
| 2026-05-07 23:20 | 36.44227 | 28.21377 | 2057 ft | 184 kts | 254° |
| 2026-05-07 23:20 | 36.43839 | 28.19887 | 1834 ft | 181 kts | 255° |
| 2026-05-07 23:20 | 36.43411 | 28.18452 | 1559 ft | 170 kts | 249° |
| 2026-05-07 23:21 | 36.43017 | 28.17156 | 1352 ft | 156 kts | 254° |
| 2026-05-07 23:21 | 36.42679 | 28.15897 | 1101 ft | 148 kts | 251° |
| 2026-05-07 23:21 | 36.42333 | 28.14775 | 880 ft | 135 kts | 251° |
| 2026-05-07 23:21 | 36.42023 | 28.13663 | 670 ft | 138 kts | 253° |
| 2026-05-07 23:22 | 36.41691 | 28.12528 | 466 ft | 142 kts | 250° |
| 2026-05-07 23:22 | 36.41346 | 28.11369 | 269 ft | 142 kts | 250° |
| 2026-05-07 23:22 | 36.41004 | 28.10208 | 49 ft | 145 kts | 250° |
| 2026-05-07 23:22 | 36.40689 | 28.09145 | 30 ft | 113 kts | 251° |
| 2026-05-07 23:23 | 36.40473 | 28.08397 | 27 ft | 71 kts | 250° |
| 2026-05-07 23:23 | 36.40307 | 28.07979 | 28 ft | 35 kts | 222° |
| 2026-05-07 23:23 | 36.40197 | 28.07869 | 27 ft | 13 kts | 214° |
| 2026-05-07 23:23 | 36.40150 | 28.07918 | 27 ft | 13 kts | 70° |
| 2026-05-07 23:24 | 36.40181 | 28.08021 | 27 ft | 13 kts | 70° |
| 2026-05-07 23:24 | 36.40211 | 28.08122 | 27 ft | 12 kts | 71° |
| 2026-05-07 23:24 | 36.40243 | 28.08233 | 27 ft | 16 kts | 70° |
| 2026-05-07 23:24 | 36.40288 | 28.08386 | 27 ft | 21 kts | 70° |
| 2026-05-07 23:25 | 36.40344 | 28.08576 | 27 ft | 25 kts | 71° |
| 2026-05-07 23:25 | 36.40396 | 28.08762 | 27 ft | 18 kts | 78° |
| 2026-05-07 23:25 | 36.40399 | 28.08907 | 27 ft | 14 kts | 93° |
| 2026-05-07 23:25 | 36.40398 | 28.08988 | 27 ft | 3 kts | 101° |
| 2026-05-07 23:26 | 36.40382 | 28.09006 | 27 ft | 3 kts | 157° |
| 2026-05-07 23:26 | 36.40358 | 28.09017 | 27 ft | 4 kts | 159° |
| 2026-05-07 23:26 | 36.40340 | 28.09026 | 27 ft | 0 kts | 160° |
| 2026-05-07 23:26 | 36.40338 | 28.09027 | 27 ft | 1 kts | 160° |
| 2026-05-07 23:27 | 36.40334 | 28.09028 | 27 ft | 0 kts | 160° |